createdAt,value
2019-05-16T00:00:29.060Z,2.07
2019-05-16T00:02:59.985Z,2.70
2019-05-16T00:05:31.837Z,1.93
2019-05-16T00:08:03.935Z,2.23
2019-05-16T00:10:35.689Z,2.10
2019-05-16T00:13:08.515Z,2.30
2019-05-16T00:15:40.249Z,2.10
2019-05-16T00:18:12.198Z,2.50
2019-05-16T00:20:44.151Z,2.50
2019-05-16T00:23:18.126Z,2.23
2019-05-16T00:25:49.068Z,2.27
2019-05-16T00:28:20.594Z,2.60
2019-05-16T00:30:52.155Z,2.03
2019-05-16T00:33:25.790Z,2.33
2019-05-16T00:36:03.384Z,2.30
2019-05-16T00:38:31.749Z,2.07
2019-05-16T00:41:03.233Z,2.17
2019-05-16T00:43:34.934Z,2.00
2019-05-16T00:46:08.278Z,2.40
2019-05-16T00:48:39.564Z,2.00
2019-05-16T00:51:11.157Z,2.40
2019-05-16T00:53:42.590Z,2.77
2019-05-16T00:56:14.436Z,2.67
2019-05-16T00:58:48.266Z,2.70
2019-05-16T01:01:23.054Z,2.67
2019-05-16T01:03:54.527Z,2.43
2019-05-16T01:06:25.986Z,2.87
2019-05-16T01:08:58.004Z,2.60
2019-05-16T01:11:30.988Z,3.10
2019-05-16T01:14:02.818Z,3.30
2019-05-16T01:16:34.488Z,2.77
2019-05-16T01:19:08.295Z,3.03
2019-05-16T01:21:39.324Z,3.17
2019-05-16T01:24:11.975Z,2.90
2019-05-16T01:26:43.420Z,3.67
2019-05-16T01:29:18.787Z,2.93
2019-05-16T01:31:49.867Z,3.23
2019-05-16T01:34:21.744Z,3.13
2019-05-16T01:36:53.197Z,3.80
2019-05-16T01:39:25.335Z,4.00
2019-05-16T01:41:58.700Z,3.53
2019-05-16T01:44:31.262Z,4.47
2019-05-16T01:47:02.793Z,4.70
2019-05-16T01:49:34.640Z,4.10
2019-05-16T01:52:08.306Z,4.73
2019-05-16T01:54:39.463Z,5.20
2019-05-16T01:57:10.905Z,4.90
2019-05-16T01:59:42.524Z,4.87
2019-05-16T02:02:13.952Z,5.10
2019-05-16T02:04:45.502Z,5.80
2019-05-16T02:07:18.841Z,6.20
2019-05-16T02:09:50.165Z,5.60
2019-05-16T02:12:21.847Z,5.90
2019-05-16T02:14:53.344Z,6.37
2019-05-16T02:17:25.171Z,6.90
2019-05-16T02:19:57.777Z,7.70
2019-05-16T02:22:29.787Z,7.90
2019-05-16T02:25:01.235Z,7.13
2019-05-16T02:27:32.755Z,8.50
2019-05-16T02:30:04.912Z,8.33
2019-05-16T02:32:36.465Z,9.00
2019-05-16T02:35:11.252Z,6.87
2019-05-16T02:37:42.390Z,8.23
2019-05-16T02:40:21.037Z,9.60
2019-05-16T02:42:56.025Z,7.87
2019-05-16T02:45:26.067Z,7.80
2019-05-16T02:47:57.736Z,8.97
2019-05-16T02:50:31.551Z,8.80
2019-05-16T02:53:02.349Z,6.57
2019-05-16T02:55:34.133Z,8.47
2019-05-16T02:58:05.590Z,8.00
2019-05-16T03:00:42.086Z,8.50
2019-05-16T03:03:12.246Z,7.73
2019-05-16T03:05:44.847Z,7.80
2019-05-16T03:08:20.818Z,8.00
2019-05-16T03:10:52.399Z,7.57
2019-05-16T03:13:24.700Z,7.70
2019-05-16T03:16:00.598Z,13.43
2019-05-16T03:18:33.766Z,13.20
2019-05-16T03:21:10.998Z,8.93
2019-05-16T03:23:42.029Z,7.87
2019-05-16T03:26:14.130Z,10.73
2019-05-16T03:28:45.609Z,9.37
2019-05-16T03:31:23.850Z,9.30
2019-05-16T03:33:58.835Z,10.40
2019-05-16T03:36:25.856Z,9.53
2019-05-16T03:38:57.697Z,9.87
2019-05-16T03:41:30.907Z,9.80
2019-05-16T03:44:03.500Z,8.23
2019-05-16T03:46:35.298Z,8.73
2019-05-16T03:49:07.297Z,7.13
2019-05-16T03:51:41.399Z,6.97
2019-05-16T03:54:12.744Z,7.03
2019-05-16T03:56:44.798Z,6.23
2019-05-16T03:59:16.253Z,7.77
2019-05-16T04:01:50.906Z,6.67
2019-05-16T04:04:21.291Z,8.03
2019-05-16T04:06:53.603Z,7.23
2019-05-16T04:09:25.047Z,14.37
2019-05-16T04:11:56.545Z,11.23
2019-05-16T04:14:30.909Z,11.17
2019-05-16T04:17:01.936Z,8.57
2019-05-16T04:19:34.625Z,8.53
2019-05-16T04:22:10.527Z,6.00
2019-05-16T04:24:42.790Z,4.57
2019-05-16T04:27:14.269Z,4.70
2019-05-16T04:29:46.790Z,4.20
2019-05-16T04:32:20.915Z,4.17
2019-05-16T04:34:51.385Z,4.07
2019-05-16T04:37:26.211Z,3.97
2019-05-16T04:39:56.357Z,4.77
2019-05-16T04:42:31.035Z,4.70
2019-05-16T04:45:01.840Z,5.03
2019-05-16T04:47:33.430Z,4.20
2019-05-16T04:50:05.181Z,5.13
2019-05-16T04:52:36.732Z,4.17
2019-05-16T04:55:11.828Z,4.57
2019-05-16T04:57:42.902Z,4.70
2019-05-16T05:00:14.597Z,4.27
2019-05-16T05:02:46.280Z,4.83
2019-05-16T05:05:21.358Z,4.33
2019-05-16T05:07:51.476Z,4.93
2019-05-16T05:10:23.097Z,4.30
2019-05-16T05:12:54.688Z,4.20
2019-05-16T05:15:26.181Z,4.67
2019-05-16T05:18:00.434Z,3.77
2019-05-16T05:20:30.807Z,4.60
2019-05-16T05:23:02.357Z,5.20
2019-05-16T05:25:33.931Z,4.60
2019-05-16T05:28:06.090Z,5.50
2019-05-16T05:30:37.663Z,5.30
2019-05-16T05:33:10.156Z,4.53
2019-05-16T05:35:42.281Z,4.23
2019-05-16T05:38:34.150Z,5.03
2019-05-16T05:41:05.650Z,5.30
2019-05-16T05:43:37.102Z,5.10
2019-05-16T05:46:11.195Z,4.90
2019-05-16T05:48:42.250Z,4.40
2019-05-16T05:51:13.737Z,4.83
2019-05-16T05:53:45.394Z,5.30
2019-05-16T05:56:16.897Z,5.40
2019-05-16T05:58:50.979Z,4.80
2019-05-16T06:01:21.489Z,5.00
2019-05-16T06:03:52.961Z,4.70
2019-05-16T06:06:24.437Z,5.07
2019-05-16T06:08:55.870Z,5.00
2019-05-16T06:11:27.384Z,5.83
2019-05-16T06:14:00.482Z,4.93
2019-05-16T06:16:33.742Z,5.07
2019-05-16T06:19:05.186Z,4.43
2019-05-16T06:21:36.684Z,4.77
2019-05-16T06:24:10.545Z,5.10
2019-05-16T06:26:41.253Z,5.70
2019-05-16T06:29:12.706Z,4.90
2019-05-16T06:31:44.231Z,4.93
2019-05-16T06:34:15.695Z,4.50
2019-05-16T06:36:47.182Z,5.27
2019-05-16T06:39:19.941Z,4.60
2019-05-16T06:41:51.745Z,4.50
2019-05-16T06:44:23.192Z,5.00
2019-05-16T06:47:08.425Z,4.67
2019-05-16T06:49:30.234Z,5.10
2019-05-16T06:52:03.794Z,4.90
2019-05-16T06:54:35.308Z,4.47
2019-05-16T06:57:06.760Z,4.83
2019-05-16T06:59:40.355Z,4.37
2019-05-16T07:02:26.296Z,4.60
2019-05-16T07:04:44.393Z,5.37
2019-05-16T07:07:15.877Z,5.10
2019-05-16T07:09:58.051Z,5.20
2019-05-16T07:12:20.445Z,5.07
2019-05-16T07:14:53.274Z,5.00
2019-05-16T07:17:25.170Z,5.03
2019-05-16T07:20:02.195Z,5.30
2019-05-16T07:22:35.333Z,5.23
2019-05-16T07:25:10.630Z,4.83
2019-05-16T07:27:41.697Z,5.83
2019-05-16T07:30:14.449Z,5.30
2019-05-16T07:32:46.413Z,5.13
2019-05-16T07:35:20.275Z,5.40
2019-05-16T07:37:51.213Z,4.67
2019-05-16T07:40:26.904Z,5.00
2019-05-16T07:42:59.970Z,4.73
2019-05-16T07:45:31.845Z,5.57
2019-05-16T07:48:03.393Z,5.07
2019-05-16T07:50:34.866Z,5.93
2019-05-16T07:53:06.369Z,6.17
2019-05-16T07:55:39.924Z,5.70
2019-05-16T07:58:13.320Z,5.33
2019-05-16T08:00:53.232Z,5.87
2019-05-16T08:03:19.749Z,6.30
2019-05-16T08:05:51.234Z,6.17
2019-05-16T08:08:24.472Z,6.63
2019-05-16T08:10:56.663Z,6.57
2019-05-16T08:13:30.617Z,6.20
2019-05-16T08:16:01.524Z,6.07
2019-05-16T08:18:33.295Z,6.40
2019-05-16T08:21:04.894Z,6.07
2019-05-16T08:23:36.414Z,6.43
2019-05-16T08:26:10.355Z,6.27
2019-05-16T08:28:42.151Z,6.50
2019-05-16T08:31:13.775Z,6.87
2019-05-16T08:33:45.310Z,6.20
2019-05-16T08:36:16.858Z,6.93
2019-05-16T08:38:51.184Z,5.77
2019-05-16T08:41:22.275Z,5.67
2019-05-16T08:43:54.154Z,6.97
2019-05-16T08:46:25.618Z,6.73
2019-05-16T08:49:00.832Z,6.33
2019-05-16T08:54:03.930Z,6.67
2019-05-16T08:56:51.247Z,6.80
2019-05-16T08:59:22.802Z,6.20
2019-05-16T09:01:58.131Z,6.93
2019-05-16T09:04:29.630Z,6.47
2019-05-16T09:07:01.979Z,7.17
2019-05-16T09:09:42.669Z,6.43
2019-05-16T09:10:35.227Z,6.53
2019-05-16T09:12:07.850Z,6.50
2019-05-16T09:14:40.993Z,6.50
2019-05-16T09:17:12.823Z,6.13
2019-05-16T09:19:44.355Z,6.03
2019-05-16T09:22:17.932Z,6.13
2019-05-16T09:24:49.026Z,6.07
2019-05-16T09:27:20.616Z,6.43
2019-05-16T09:29:52.247Z,5.80
2019-05-16T09:32:23.745Z,5.90
2019-05-16T09:34:57.293Z,5.20
2019-05-16T09:37:28.357Z,5.80
2019-05-16T09:39:59.804Z,6.23
2019-05-16T09:42:31.307Z,5.57
2019-05-16T09:45:03.210Z,6.23
2019-05-16T09:47:38.805Z,5.57
2019-05-16T09:50:11.220Z,5.60
2019-05-16T09:52:42.795Z,5.50
2019-05-16T09:55:14.474Z,5.70
2019-05-16T09:57:46.816Z,5.77
2019-05-16T10:00:21.659Z,5.87
2019-05-16T10:02:53.443Z,5.80
2019-05-16T10:05:26.654Z,5.67
2019-05-16T10:07:58.012Z,5.10
2019-05-16T10:10:29.458Z,5.20
2019-05-16T10:13:01.042Z,5.83
2019-05-16T10:15:32.690Z,5.80
2019-05-16T10:18:07.360Z,4.93
2019-05-16T10:20:37.831Z,5.10
2019-05-16T10:23:14.546Z,6.57
2019-05-16T10:25:42.578Z,5.57
2019-05-16T10:28:16.984Z,3.83
2019-05-16T10:30:50.053Z,3.30
2019-05-16T10:33:20.726Z,3.83
2019-05-16T10:35:53.283Z,6.10
2019-05-16T10:38:28.087Z,8.50
2019-05-16T10:40:58.034Z,7.57
2019-05-16T10:43:29.557Z,7.60
2019-05-16T10:46:01.005Z,6.67
2019-05-16T10:48:32.530Z,6.43
2019-05-16T10:51:04.385Z,6.20
2019-05-16T10:54:00.969Z,6.37
2019-05-16T10:56:09.181Z,8.67
2019-05-16T10:59:03.808Z,10.27
2019-05-16T11:01:26.950Z,8.60
2019-05-16T11:03:49.233Z,6.80
2019-05-16T11:06:25.783Z,6.17
2019-05-16T11:08:56.987Z,6.23
2019-05-16T11:11:27.539Z,5.90
2019-05-16T11:13:59.299Z,6.50
2019-05-16T11:16:30.899Z,5.53
2019-05-16T11:19:14.390Z,5.80
2019-05-16T11:21:37.639Z,5.33
2019-05-16T11:24:12.921Z,6.07
2019-05-16T11:26:43.592Z,6.73
2019-05-16T11:29:16.556Z,6.10
2019-05-16T11:31:48.253Z,5.67
2019-05-16T11:34:19.711Z,6.03
2019-05-16T11:36:51.271Z,5.60
2019-05-16T11:39:22.755Z,5.83
2019-05-16T11:41:56.954Z,6.57
2019-05-16T11:44:28.940Z,6.40
2019-05-16T11:47:00.678Z,7.10
2019-05-16T11:49:32.217Z,7.97
2019-05-16T11:52:03.654Z,7.77
2019-05-16T11:54:37.438Z,8.30
2019-05-16T11:57:08.386Z,8.83
2019-05-16T11:59:39.890Z,9.87
2019-05-16T12:02:11.338Z,9.97
2019-05-16T12:04:42.808Z,10.27
2019-05-16T12:07:18.367Z,11.17
2019-05-16T12:09:54.591Z,10.77
2019-05-16T12:12:21.089Z,10.63
2019-05-16T12:14:55.997Z,10.47
2019-05-16T12:17:28.033Z,11.87
2019-05-16T12:19:59.749Z,10.93
2019-05-16T12:22:31.249Z,12.10
2019-05-16T12:25:02.718Z,11.17
2019-05-16T12:27:42.223Z,9.80
2019-05-16T12:30:14.318Z,11.47
2019-05-16T12:32:47.032Z,11.83
2019-05-16T12:35:19.488Z,12.50
2019-05-16T12:37:52.143Z,11.57
2019-05-16T12:40:23.715Z,12.97
2019-05-16T12:42:57.297Z,14.13
2019-05-16T12:45:28.338Z,12.87
2019-05-16T12:47:59.846Z,12.03
2019-05-16T12:50:31.293Z,12.47
2019-05-16T12:53:02.861Z,13.27
2019-05-16T12:55:36.707Z,12.97
2019-05-16T12:58:19.557Z,12.60
2019-05-16T13:00:44.196Z,12.50
2019-05-16T13:03:13.763Z,11.10
2019-05-16T13:05:47.547Z,11.87
2019-05-16T13:08:18.429Z,11.23
2019-05-16T13:10:50.975Z,11.93
2019-05-16T13:13:22.442Z,12.63
2019-05-16T13:15:53.905Z,11.80
2019-05-16T13:18:27.515Z,13.03
2019-05-16T13:20:58.956Z,13.00
2019-05-16T13:23:30.461Z,13.43
2019-05-16T13:26:02.028Z,13.67
2019-05-16T13:28:33.582Z,12.60
2019-05-16T13:31:07.490Z,13.43
2019-05-16T13:33:38.719Z,11.50
2019-05-16T13:36:10.191Z,11.33
2019-05-16T13:38:41.693Z,12.20
2019-05-16T13:41:13.348Z,13.70
2019-05-16T13:43:44.850Z,13.17
2019-05-16T13:46:17.198Z,14.50
2019-05-16T13:48:49.118Z,13.90
2019-05-16T13:51:21.010Z,12.53
2019-05-16T13:53:52.562Z,13.53
2019-05-16T13:56:27.168Z,12.87
2019-05-16T13:58:57.222Z,12.67
2019-05-16T14:01:28.797Z,14.17
2019-05-16T14:04:00.264Z,16.50
2019-05-16T14:06:31.854Z,14.67
2019-05-16T14:09:07.230Z,11.97
2019-05-16T14:11:38.366Z,13.57
2019-05-16T14:14:09.819Z,13.00
2019-05-16T14:16:41.286Z,19.90
2019-05-16T14:19:12.781Z,19.07
2019-05-16T14:21:47.582Z,17.67
2019-05-16T14:24:18.162Z,14.70
2019-05-16T14:26:50.152Z,13.73
2019-05-16T14:29:22.891Z,13.60
2019-05-16T14:31:56.628Z,13.93
2019-05-16T14:34:27.954Z,17.50
2019-05-16T14:36:59.703Z,14.70
2019-05-16T14:39:31.179Z,15.80
2019-05-16T14:42:02.737Z,13.93
2019-05-16T14:44:57.044Z,14.60
2019-05-16T14:47:07.370Z,14.13
2019-05-16T14:49:40.046Z,14.10
2019-05-16T14:52:11.543Z,13.00
2019-05-16T14:54:46.760Z,13.20
2019-05-16T14:57:17.711Z,14.77
2019-05-16T14:59:49.239Z,14.67
2019-05-16T15:02:22.288Z,13.67
2019-05-16T15:04:53.758Z,13.40
2019-05-16T15:07:27.531Z,11.80
2019-05-16T15:09:58.421Z,13.57
2019-05-16T15:12:29.937Z,12.43
2019-05-16T15:15:15.669Z,13.03
2019-05-16T15:17:34.636Z,13.77
2019-05-16T15:20:06.892Z,12.13
2019-05-16T15:22:38.718Z,12.13
2019-05-16T15:25:10.565Z,13.50
2019-05-16T15:27:42.090Z,13.07
2019-05-16T15:30:13.975Z,12.87
2019-05-16T15:32:48.089Z,13.03
2019-05-16T15:35:19.334Z,13.97
2019-05-16T15:37:50.840Z,12.93
2019-05-16T15:40:22.447Z,14.17
2019-05-16T15:42:58.857Z,14.83
2019-05-16T15:45:54.273Z,13.33
2019-05-16T15:48:27.359Z,14.63
2019-05-16T15:50:59.993Z,14.10
2019-05-16T15:53:32.520Z,15.07
2019-05-16T15:56:07.065Z,14.90
2019-05-16T15:58:41.647Z,15.93
2019-05-16T16:01:13.230Z,15.43
2019-05-16T16:03:47.051Z,14.20
2019-05-16T16:06:18.045Z,14.00
2019-05-16T16:08:50.122Z,13.70
2019-05-16T16:11:21.829Z,14.43
2019-05-16T16:13:53.563Z,13.93
2019-05-16T16:16:26.769Z,16.27
2019-05-16T16:18:59.940Z,17.40
2019-05-16T16:21:31.602Z,18.47
2019-05-16T16:24:05.157Z,19.07
2019-05-16T16:26:38.162Z,16.10
2019-05-16T16:29:09.625Z,16.00
2019-05-16T16:31:41.220Z,13.13
2019-05-16T16:34:13.791Z,12.60
2019-05-16T16:36:47.487Z,22.20
2019-05-16T16:39:18.615Z,14.30
2019-05-16T16:41:50.142Z,13.03
2019-05-16T16:44:21.760Z,12.00
2019-05-16T16:46:53.470Z,10.67
2019-05-16T16:49:27.852Z,12.47
2019-05-16T16:51:58.784Z,11.33
2019-05-16T16:54:30.326Z,11.43
2019-05-16T16:57:01.940Z,12.27
2019-05-16T16:59:36.908Z,11.70
2019-05-16T17:02:09.418Z,16.20
2019-05-16T17:04:40.907Z,15.87
2019-05-16T17:07:13.040Z,11.60
2019-05-16T17:09:46.998Z,11.23
2019-05-16T17:12:17.812Z,12.03
2019-05-16T17:14:50.736Z,11.47
2019-05-16T17:17:22.411Z,10.60
2019-05-16T17:19:56.586Z,9.73
2019-05-16T17:22:27.408Z,10.57
2019-05-16T17:24:58.979Z,9.23
2019-05-16T17:27:30.552Z,10.67
2019-05-16T17:30:02.153Z,10.77
2019-05-16T17:32:35.044Z,15.10
2019-05-16T17:35:06.879Z,23.40
2019-05-16T17:37:38.983Z,13.63
2019-05-16T17:40:10.934Z,12.07
2019-05-16T17:42:42.539Z,13.07
2019-05-16T17:45:17.469Z,12.43
2019-05-16T17:47:48.733Z,11.90
2019-05-16T17:50:21.297Z,12.10
2019-05-16T17:52:52.923Z,12.93
2019-05-16T17:55:26.879Z,12.30
2019-05-16T17:57:57.822Z,16.33
2019-05-16T18:00:29.880Z,17.03
2019-05-16T18:03:01.484Z,15.40
2019-05-16T18:05:40.100Z,14.50
2019-05-16T18:08:11.906Z,13.27
2019-05-16T18:10:43.659Z,13.47
2019-05-16T18:13:15.706Z,12.97
2019-05-16T18:15:47.429Z,12.93
2019-05-16T18:18:19.012Z,14.47
2019-05-16T18:20:57.922Z,19.80
2019-05-16T18:23:23.976Z,17.23
2019-05-16T18:25:57.554Z,13.40
2019-05-16T18:28:28.851Z,11.43
2019-05-16T18:31:00.431Z,12.87
2019-05-16T18:33:32.178Z,12.47
2019-05-16T18:36:03.656Z,11.53
2019-05-16T18:38:37.123Z,11.43
2019-05-16T18:41:08.327Z,11.20
2019-05-16T18:43:39.830Z,11.90
2019-05-16T18:46:11.375Z,17.77
2019-05-16T18:48:43.118Z,16.43
2019-05-16T18:51:14.673Z,14.93
2019-05-16T18:53:46.540Z,12.53
2019-05-16T18:56:18.518Z,12.80
2019-05-16T18:58:50.092Z,12.83
2019-05-16T19:01:21.665Z,12.63
2019-05-16T19:03:53.226Z,11.60
2019-05-16T19:06:27.425Z,12.03
2019-05-16T19:08:58.441Z,12.77
2019-05-16T19:11:30.765Z,13.50
2019-05-16T19:14:03.254Z,15.70
2019-05-16T19:16:49.016Z,13.30
2019-05-16T19:19:19.945Z,13.03
2019-05-16T19:21:51.982Z,13.63
2019-05-16T19:24:23.650Z,12.80
2019-05-16T19:27:01.349Z,14.17
2019-05-16T19:29:32.987Z,13.47
2019-05-16T19:32:06.638Z,12.57
2019-05-16T19:34:38.126Z,13.57
2019-05-16T19:37:09.696Z,12.50
2019-05-16T19:39:41.243Z,13.30
2019-05-16T19:42:12.860Z,12.50
2019-05-16T19:44:46.433Z,10.73
2019-05-16T19:47:18.341Z,11.47
2019-05-16T19:49:49.794Z,10.23
2019-05-16T19:52:21.363Z,9.73
2019-05-16T19:54:52.947Z,10.40
2019-05-16T19:57:26.489Z,9.80
2019-05-16T19:59:57.711Z,10.13
2019-05-16T20:02:29.281Z,8.87
2019-05-16T20:05:00.938Z,10.03
2019-05-16T20:07:32.429Z,9.07
2019-05-16T20:10:04.084Z,9.40
2019-05-16T20:12:37.002Z,10.33
2019-05-16T20:15:11.912Z,9.60
2019-05-16T20:17:52.088Z,9.60
2019-05-16T20:20:18.636Z,10.93
2019-05-16T20:22:49.890Z,10.57
2019-05-16T20:25:21.412Z,9.87
2019-05-16T20:27:52.948Z,10.17
2019-05-16T20:30:26.398Z,9.50
2019-05-16T20:32:57.709Z,10.00
2019-05-16T20:35:29.226Z,14.00
2019-05-16T20:38:00.822Z,16.37
2019-05-16T20:40:32.738Z,13.03
2019-05-16T20:43:07.370Z,10.03
2019-05-16T20:45:39.744Z,10.10
2019-05-16T20:48:15.165Z,9.73
2019-05-16T20:50:48.899Z,9.37
2019-05-16T20:53:18.618Z,9.13
2019-05-16T20:55:51.271Z,13.77
2019-05-16T20:58:22.845Z,10.77
2019-05-16T21:00:54.413Z,8.90
2019-05-16T21:03:27.092Z,8.60
2019-05-16T21:06:00.440Z,8.23
2019-05-16T21:08:31.950Z,9.00
2019-05-16T21:11:06.363Z,8.77
2019-05-16T21:13:37.151Z,8.37
2019-05-16T21:16:08.698Z,9.10
2019-05-16T21:18:40.207Z,8.50
2019-05-16T21:21:11.689Z,8.53
2019-05-16T21:23:43.295Z,8.67
2019-05-16T21:26:15.074Z,9.03
2019-05-16T21:28:47.025Z,10.03
2019-05-16T21:31:19.417Z,11.57
2019-05-16T21:33:51.235Z,12.03
2019-05-16T21:36:23.447Z,12.17
2019-05-16T21:38:55.399Z,11.03
2019-05-16T21:41:27.152Z,12.63
2019-05-16T21:43:59.338Z,14.53
2019-05-16T21:46:30.802Z,15.10
2019-05-16T21:49:02.875Z,15.27
2019-05-16T21:51:34.366Z,14.93
2019-05-16T21:54:07.148Z,14.83
2019-05-16T21:56:39.315Z,16.17
2019-05-16T21:59:10.988Z,13.33
2019-05-16T22:01:42.893Z,14.57
2019-05-16T22:04:14.596Z,14.10
2019-05-16T22:06:47.546Z,16.33
2019-05-16T22:09:19.544Z,15.23
2019-05-16T22:11:51.091Z,14.67
2019-05-16T22:14:29.199Z,16.57
2019-05-16T22:17:00.826Z,14.73
2019-05-16T22:19:32.420Z,14.50
2019-05-16T22:22:04.282Z,14.50
2019-05-16T22:24:37.157Z,14.40
2019-05-16T22:27:08.822Z,14.77
2019-05-16T22:29:40.468Z,14.23
2019-05-16T22:32:12.094Z,14.17
2019-05-16T22:34:44.177Z,15.03
2019-05-16T22:37:17.150Z,13.83
2019-05-16T22:39:49.558Z,14.50
2019-05-16T22:42:41.418Z,13.67
2019-05-16T22:45:17.391Z,16.43
2019-05-16T22:47:48.434Z,15.37
2019-05-16T22:50:20.534Z,15.13
2019-05-16T22:52:51.994Z,16.90
2019-05-16T22:55:26.264Z,15.10
2019-05-16T22:57:57.003Z,15.90
2019-05-16T23:00:30.770Z,15.47
2019-05-16T23:03:02.274Z,16.10
2019-05-16T23:05:33.914Z,16.30
2019-05-16T23:08:09.433Z,15.83
2019-05-16T23:10:38.607Z,17.73
2019-05-16T23:13:10.056Z,15.70
2019-05-16T23:15:41.646Z,16.53
2019-05-16T23:18:13.106Z,16.97
2019-05-16T23:20:44.618Z,14.77
2019-05-16T23:23:17.390Z,15.87
2019-05-16T23:25:49.425Z,18.07
2019-05-16T23:28:20.914Z,17.67
2019-05-16T23:30:59.466Z,17.23
2019-05-16T23:33:30.939Z,16.17
2019-05-16T23:36:02.878Z,17.60
2019-05-16T23:38:36.690Z,17.33
2019-05-16T23:41:07.755Z,18.07
2019-05-16T23:43:39.236Z,16.03
2019-05-16T23:46:10.738Z,17.00
2019-05-16T23:48:42.352Z,16.53
2019-05-16T23:51:14.235Z,18.07
2019-05-16T23:53:46.439Z,17.83
2019-05-16T23:56:18.266Z,16.20
2019-05-16T23:58:49.854Z,16.97
